Terminal Aerodrome Forecast
Issued by NWS Los Angeles, CA

Home | Current Version | Previous Version | Text Only | Print | Product List | Glossary On
Versions: 1 2 3 4 5 6 7 8 9 10 11 12 13 14 15 16 17 18 19 20 21 22 23 24
387
FTUS46 KLOX 250539
TAFSMX
TAF
KSMX 250539Z 2506/2606 VRB03KT P6SM SCT015
     FM250800 VRB03KT P6SM OVC015
     FM251700 30006KT P6SM OVC025
     FM252100 31015KT P6SM SCT025 SCT040
     FM260200 30012KT P6SM OVC015=

USA.gov is the U.S. government's official web portal to all federal, state and local government web resources and services.